VCRI

Mattala Rajapaksa International Airport

Airport
ICAO code
VCRI
IATA Code
HRI
Summary
ICAO Region
APAC
ICAO Territory
Location

Mattala, Southern Province

Serving
Hambantota
Elevation
159 ft
Coordinates
6° 17' 20" N , 81° 7' 25" E
KCC
Aw
Metar
Observation
VCRI 110610Z 28015G27KT 250V310 9999 FEW018 33/23 Q1007 NOSIG
Station
Hambantota International Airport
Date/Time
2022-08-11 06:10:00
Wind direction
280°
Wind speed
15 kts
Lowest cloud amount
few clouds
Temperature
33°C
Dew point
23°C
Humidity
55%
QNH
1007 hPa
Weather condition
n/a

Mattala Rajapaksa International Airport is an international airport serving southeast Sri Lanka.

Climatology

Tropical savanna climate (Köppen climate classification Aw)

Airport map

Aerial View

SKYbrary Partners:

Safety knowledge contributed by: